Time;durP1;ratioP1;P1;durP2;ratioP2;P2;SDS_P1;SDS_P2;PMS_P1;PMS_P2;Temp;Humidity;BMP_temperature;BMP_pressure;BME280_temperature;BME280_humidity;BME280_pressure;Samples;Min_cycle;Max_cycle;Signal;HPM_P1;HPM_P2
2023/09/28 00:03:53;;;;;;;3.50;2.15;;;18.40;99.90;;;;;;7299391;32;20206;-56
2023/09/28 00:07:56;;;;;;;6.47;2.47;;;18.40;99.90;;;;;;7301732;32;21028;-57
2023/09/28 00:11:58;;;;;;;4.62;2.65;;;18.50;99.90;;;;;;7298349;32;20210;-57
2023/09/28 00:15:59;;;;;;;5.00;2.42;;;18.40;99.90;;;;;;7303141;32;20578;-55
2023/09/28 00:20:02;;;;;;;4.57;2.20;;;18.50;99.90;;;;;;7301247;32;20206;-55
2023/09/28 00:24:09;;;;;;;2.92;2.30;;;18.40;99.90;;;;;;7295574;32;20168;-56
2023/09/28 00:28:11;;;;;;;4.62;2.40;;;18.30;99.90;;;;;;7297694;32;20240;-57
2023/09/28 00:32:13;;;;;;;3.58;2.35;;;18.30;99.90;;;;;;7300705;32;20176;-56
2023/09/28 00:36:14;;;;;;;3.53;2.45;;;18.20;99.90;;;;;;7303205;32;20533;-58
2023/09/28 00:44:18;;;;;;;3.47;2.08;;;18.20;99.90;;;;;;7302685;32;20136;-57
2023/09/28 00:48:21;;;;;;;3.50;2.35;;;18.10;99.90;;;;;;7303337;32;20118;-57
2023/09/28 00:52:23;;;;;;;2.72;2.40;;;18.10;99.90;;;;;;7300491;32;20134;-56
2023/09/28 00:56:25;;;;;;;3.90;2.33;;;18.20;99.90;;;;;;7300644;32;20155;-56
2023/09/28 01:00:29;;;;;;;3.70;2.15;;;18.20;99.90;;;;;;7301212;32;20126;-57
2023/09/28 01:04:31;;;;;;;4.87;2.20;;;18.30;99.90;;;;;;7300805;32;20207;-56
2023/09/28 01:08:33;;;;;;;2.80;2.00;;;18.20;99.90;;;;;;7295641;32;20599;-56
2023/09/28 01:12:38;;;;;;;3.72;2.00;;;18.20;99.90;;;;;;7289696;32;20134;-56
2023/09/28 01:16:40;;;;;;;5.78;2.67;;;18.30;99.90;;;;;;7300036;32;20245;-57
2023/09/28 01:20:45;;;;;;;4.12;2.25;;;18.20;99.90;;;;;;7298497;32;20230;-56
2023/09/28 01:24:47;;;;;;;3.87;2.25;;;18.10;99.90;;;;;;7300353;32;20112;-58
2023/09/28 01:28:49;;;;;;;4.53;2.45;;;18.10;99.90;;;;;;7301364;32;20134;-56
2023/09/28 01:32:52;;;;;;;2.75;1.90;;;18.10;99.90;;;;;;7306153;32;20932;-57
2023/09/28 01:36:54;;;;;;;3.60;2.20;;;18.10;99.90;;;;;;7307386;32;20213;-58
2023/09/28 01:40:57;;;;;;;3.92;2.67;;;18.00;99.90;;;;;;7305031;32;20271;-57
2023/09/28 01:44:59;;;;;;;3.30;2.05;;;18.00;99.90;;;;;;7304155;32;20108;-57
2023/09/28 01:49:00;;;;;;;2.95;2.08;;;17.90;99.90;;;;;;7306683;32;20490;-56
2023/09/28 01:53:02;;;;;;;3.55;2.70;;;17.90;99.90;;;;;;7304442;32;20164;-57
2023/09/28 01:57:04;;;;;;;2.47;2.08;;;17.80;99.90;;;;;;7305622;32;20138;-56
2023/09/28 02:01:06;;;;;;;3.20;2.30;;;18.00;99.90;;;;;;7302354;32;20234;-57
2023/09/28 02:05:08;;;;;;;2.30;2.10;;;17.80;99.90;;;;;;7302854;32;20112;-57
2023/09/28 02:09:11;;;;;;;4.18;2.20;;;17.70;99.90;;;;;;7303587;32;20550;-56
2023/09/28 02:13:13;;;;;;;4.45;2.08;;;17.80;99.90;;;;;;7305756;32;20112;-57
2023/09/28 02:17:15;;;;;;;3.10;2.50;;;17.80;99.90;;;;;;7306059;32;20130;-56
2023/09/28 02:21:17;;;;;;;4.95;2.28;;;18.10;99.90;;;;;;7300818;32;20170;-57
2023/09/28 02:25:21;;;;;;;5.03;2.50;;;17.90;99.90;;;;;;7306059;32;20549;-56
2023/09/28 02:29:23;;;;;;;4.07;2.10;;;17.80;99.90;;;;;;7293292;32;20111;-57
2023/09/28 02:33:25;;;;;;;3.72;1.92;;;18.00;99.90;;;;;;7305721;32;20510;-57
2023/09/28 02:37:27;;;;;;;4.82;2.00;;;17.90;99.90;;;;;;7304489;32;20106;-57
2023/09/28 02:41:28;;;;;;;3.85;2.20;;;17.70;99.90;;;;;;7303801;32;20210;-56
2023/09/28 02:45:30;;;;;;;4.37;2.12;;;17.60;99.90;;;;;;7303417;32;20107;-57
2023/09/28 02:49:32;;;;;;;3.17;2.60;;;17.60;99.90;;;;;;7300730;32;20230;-57
2023/09/28 02:53:35;;;;;;;3.30;2.08;;;17.60;99.90;;;;;;7304063;32;20132;-57
2023/09/28 02:57:37;;;;;;;3.30;2.30;;;17.40;99.90;;;;;;7301358;32;20191;-57
2023/09/28 03:01:38;;;;;;;5.40;2.47;;;17.20;99.90;;;;;;7304074;32;20229;-56
2023/09/28 03:05:40;;;;;;;4.57;2.50;;;17.40;99.90;;;;;;7302309;32;20115;-56
2023/09/28 03:09:42;;;;;;;4.28;2.40;;;17.40;99.90;;;;;;7305582;32;20514;-57
2023/09/28 03:13:44;;;;;;;4.70;2.37;;;17.20;99.90;;;;;;7303790;32;20445;-56
2023/09/28 03:17:49;;;;;;;3.42;2.50;;;17.20;99.90;;;;;;7302804;32;20136;-56
2023/09/28 03:21:50;;;;;;;3.80;2.50;;;17.20;99.90;;;;;;7304682;32;20135;-56
2023/09/28 03:25:56;;;;;;;4.03;2.10;;;17.00;99.90;;;;;;7302869;32;20281;-57
2023/09/28 03:29:57;;;;;;;3.62;2.28;;;17.20;99.90;;;;;;7302281;32;20115;-56
2023/09/28 03:33:59;;;;;;;4.03;2.00;;;17.00;99.90;;;;;;7301564;32;20190;-55
2023/09/28 03:38:01;;;;;;;5.25;2.30;;;17.00;99.90;;;;;;7301347;32;20579;-56
2023/09/28 03:42:03;;;;;;;4.72;2.22;;;16.90;99.90;;;;;;7302214;32;20183;-56
2023/09/28 03:46:05;;;;;;;3.47;2.40;;;16.80;99.90;;;;;;7299243;32;20130;-56
2023/09/28 03:50:15;;;;;;;3.25;2.15;;;16.70;99.90;;;;;;7301236;32;20584;-57
2023/09/28 03:54:17;;;;;;;3.15;2.50;;;16.70;99.90;;;;;;7304269;32;20586;-57
2023/09/28 03:58:19;;;;;;;3.70;3.15;;;16.60;99.90;;;;;;7304065;32;20140;-56
2023/09/28 04:02:21;;;;;;;3.00;2.00;;;16.60;99.90;;;;;;7301300;32;20163;-56
2023/09/28 04:06:23;;;;;;;3.28;2.60;;;16.50;99.90;;;;;;7301774;32;20947;-58
2023/09/28 04:10:25;;;;;;;3.17;2.55;;;16.50;99.90;;;;;;7302969;32;20107;-57
2023/09/28 04:14:27;;;;;;;3.67;2.50;;;16.30;99.90;;;;;;7302963;32;20168;-58
2023/09/28 04:18:28;;;;;;;3.03;2.35;;;16.20;99.90;;;;;;7300579;32;20272;-57
2023/09/28 04:22:30;;;;;;;5.60;2.90;;;16.10;99.90;;;;;;7303312;32;20164;-57
2023/09/28 04:26:32;;;;;;;6.45;2.87;;;15.90;99.90;;;;;;7301109;32;20104;-56
2023/09/28 04:30:34;;;;;;;4.65;2.90;;;15.80;99.90;;;;;;7298044;32;20139;-56
2023/09/28 04:34:36;;;;;;;3.60;2.37;;;15.70;99.90;;;;;;7302060;32;20139;-57
2023/09/28 04:38:38;;;;;;;4.50;2.70;;;15.50;99.90;;;;;;7301516;32;20447;-56
2023/09/28 04:42:40;;;;;;;5.18;2.85;;;15.40;99.90;;;;;;7302762;32;20150;-55
2023/09/28 04:46:42;;;;;;;4.18;2.97;;;15.30;99.90;;;;;;7302198;32;20528;-56
2023/09/28 04:50:44;;;;;;;5.05;2.90;;;15.30;99.90;;;;;;7295397;32;20123;-55
2023/09/28 04:54:46;;;;;;;5.78;2.87;;;15.20;99.90;;;;;;7291358;32;20256;-57
2023/09/28 04:58:47;;;;;;;5.78;3.30;;;15.20;99.90;;;;;;7295754;32;20130;-56
2023/09/28 05:02:49;;;;;;;4.72;2.97;;;15.10;99.90;;;;;;7296079;32;20109;-57
2023/09/28 05:06:51;;;;;;;4.05;2.80;;;15.10;99.90;;;;;;7300616;32;20143;-57
2023/09/28 05:10:53;;;;;;;6.10;2.80;;;14.90;99.90;;;;;;7300670;32;20244;-56
2023/09/28 05:14:57;;;;;;;4.05;2.58;;;14.80;99.90;;;;;;7297734;32;20136;-58
2023/09/28 05:18:59;;;;;;;4.07;2.78;;;14.80;99.90;;;;;;7295538;32;20116;-55
2023/09/28 05:23:00;;;;;;;8.13;3.17;;;14.80;99.90;;;;;;7294135;32;20132;-56
2023/09/28 05:27:02;;;;;;;4.50;3.28;;;14.70;99.90;;;;;;7300198;32;20544;-57
2023/09/28 05:31:04;;;;;;;4.95;3.05;;;14.60;99.90;;;;;;7298185;32;20220;-56
2023/09/28 05:35:07;;;;;;;4.93;2.92;;;14.50;99.90;;;;;;7295128;32;20161;-56
2023/09/28 05:39:09;;;;;;;5.95;3.42;;;14.40;99.90;;;;;;7297008;32;20175;-58
2023/09/28 05:43:11;;;;;;;5.55;3.58;;;14.40;99.90;;;;;;7292798;32;20112;-57
2023/09/28 05:47:12;;;;;;;5.85;3.50;;;14.30;99.90;;;;;;7297739;32;20858;-57
2023/09/28 05:51:15;;;;;;;4.40;3.15;;;14.30;99.90;;;;;;7300614;32;20173;-57
2023/09/28 05:55:17;;;;;;;7.93;4.10;;;14.30;99.90;;;;;;7295823;32;20150;-57
2023/09/28 05:59:19;;;;;;;7.15;3.42;;;14.30;99.90;;;;;;7292537;32;20126;-57
2023/09/28 06:03:21;;;;;;;5.72;3.45;;;14.30;99.90;;;;;;7286141;32;20132;-57
2023/09/28 06:07:24;;;;;;;3.97;3.22;;;14.30;99.90;;;;;;7297493;32;20567;-56
2023/09/28 06:11:25;;;;;;;10.45;6.68;;;14.40;99.90;;;;;;7300804;32;20665;-58
2023/09/28 06:15:27;;;;;;;21.02;14.57;;;14.40;99.90;;;;;;7300023;32;20808;-56
2023/09/28 06:19:29;;;;;;;7.53;4.90;;;14.40;99.90;;;;;;7304639;32;20104;-56
2023/09/28 06:23:36;;;;;;;;;;;14.40;99.90;;;;;;7300451;32;20808;-57
2023/09/28 06:27:39;;;;;;;5.62;3.42;;;14.40;99.90;;;;;;7300374;32;20701;-56
2023/09/28 06:31:41;;;;;;;4.53;3.37;;;14.50;99.90;;;;;;7304140;32;20214;-57
2023/09/28 06:35:43;;;;;;;3.35;3.03;;;14.50;99.90;;;;;;7303783;32;20225;-56
2023/09/28 06:39:45;;;;;;;8.32;3.25;;;14.50;99.90;;;;;;7304003;32;20124;-56
2023/09/28 06:43:48;;;;;;;5.22;3.20;;;14.60;99.90;;;;;;7302680;32;20135;-57
2023/09/28 06:47:51;;;;;;;4.20;3.40;;;14.70;99.90;;;;;;7300100;32;20168;-57
2023/09/28 06:52:09;;;;;;;6.97;3.72;;;14.70;99.90;;;;;;7299684;32;20128;-57
2023/09/28 06:56:11;;;;;;;4.75;3.10;;;14.80;99.90;;;;;;7301287;32;20129;-57
2023/09/28 07:00:16;;;;;;;6.15;3.58;;;15.00;99.90;;;;;;7303607;32;20573;-58
2023/09/28 07:04:18;;;;;;;6.65;3.70;;;15.10;99.90;;;;;;7298855;32;20380;-57
2023/09/28 07:08:20;;;;;;;4.90;3.75;;;15.20;99.90;;;;;;7298154;32;20124;-56
2023/09/28 07:12:22;;;;;;;6.32;3.58;;;15.30;99.90;;;;;;7292071;32;20591;-56
2023/09/28 07:16:24;;;;;;;7.95;3.85;;;15.50;99.90;;;;;;7293317;32;20140;-58
2023/09/28 07:20:27;;;;;;;4.95;3.85;;;15.60;99.90;;;;;;7294476;32;20108;-57
2023/09/28 07:24:33;;;;;;;9.20;5.00;;;15.70;99.90;;;;;;7296996;32;20131;-56
2023/09/28 07:28:35;;;;;;;8.10;5.00;;;15.90;99.90;;;;;;7296377;32;20262;-57
2023/09/28 07:32:37;;;;;;;6.70;4.53;;;16.10;99.90;;;;;;7297196;32;20104;-56
2023/09/28 07:36:39;;;;;;;9.20;5.03;;;16.20;99.90;;;;;;7298276;32;20285;-56
2023/09/28 07:40:41;;;;;;;7.82;4.25;;;16.40;99.90;;;;;;7298355;32;20119;-56
2023/09/28 07:44:51;;;;;;;10.07;4.70;;;16.70;99.90;;;;;;7296932;32;20925;-56
2023/09/28 07:48:55;;;;;;;9.45;4.40;;;17.00;99.90;;;;;;7302064;32;20691;-57
2023/09/28 07:52:56;;;;;;;9.18;4.43;;;17.30;99.90;;;;;;7298818;32;20526;-58
2023/09/28 07:56:58;;;;;;;6.22;4.37;;;17.60;99.90;;;;;;7294485;32;20108;-56
2023/09/28 08:01:02;;;;;;;7.30;4.00;;;17.80;99.90;;;;;;7294474;32;20745;-56
2023/09/28 08:05:04;;;;;;;7.30;4.30;;;17.90;99.90;;;;;;7297095;32;20698;-56
2023/09/28 08:09:06;;;;;;;8.52;4.37;;;18.10;99.90;;;;;;7295466;32;20742;-56
2023/09/28 08:13:08;;;;;;;9.23;4.55;;;18.30;99.90;;;;;;7290349;32;20100;-56
2023/09/28 08:17:09;;;;;;;9.25;4.82;;;18.30;99.90;;;;;;7288356;32;20262;-56
2023/09/28 08:21:11;;;;;;;10.98;4.93;;;18.40;99.90;;;;;;7297899;32;20124;-57
2023/09/28 08:25:14;;;;;;;12.82;4.80;;;18.60;99.90;;;;;;7289763;32;20202;-57
2023/09/28 08:29:15;;;;;;;7.57;4.10;;;18.70;99.90;;;;;;7298194;32;20116;-57
2023/09/28 08:33:17;;;;;;;9.23;4.07;;;18.90;99.90;;;;;;7299808;32;20844;-58
2023/09/28 08:37:19;;;;;;;11.98;3.22;;;18.80;99.90;;;;;;7291632;32;20187;-57
2023/09/28 08:41:30;;;;;;;9.07;3.15;;;19.20;99.90;;;;;;7295145;32;20322;-57
2023/09/28 08:45:33;;;;;;;6.10;2.97;;;19.40;99.90;;;;;;7297645;32;20573;-57
2023/09/28 08:49:36;;;;;;;12.02;3.08;;;19.50;99.90;;;;;;7289317;32;20208;-57
2023/09/28 08:53:38;;;;;;;8.60;3.40;;;19.60;99.90;;;;;;7301209;32;20530;-59
2023/09/28 08:57:40;;;;;;;6.15;3.40;;;19.70;99.90;;;;;;7299200;32;20138;-57
2023/09/28 09:01:43;;;;;;;10.63;4.00;;;19.80;99.90;;;;;;7296314;32;20123;-57
2023/09/28 09:05:46;;;;;;;10.43;3.62;;;19.70;99.90;;;;;;7296498;32;20658;-58
2023/09/28 09:09:50;;;;;;;7.70;3.53;;;19.90;99.90;;;;;;7298033;32;20107;-58
2023/09/28 09:13:55;;;;;;;9.05;3.28;;;19.80;99.90;;;;;;7301740;32;20141;-57
2023/09/28 09:18:02;;;;;;;9.18;3.53;;;19.90;99.90;;;;;;7294484;32;20093;-58
2023/09/28 09:22:04;;;;;;;7.90;3.37;;;20.10;99.90;;;;;;7297703;32;20194;-57
2023/09/28 09:26:18;;;;;;;9.27;3.10;;;20.30;99.90;;;;;;7297705;32;20509;-57
2023/09/28 09:30:20;;;;;;;7.45;2.80;;;20.50;99.90;;;;;;7297705;32;20225;-59
2023/09/28 09:34:22;;;;;;;7.35;3.40;;;20.60;99.90;;;;;;7293720;32;20195;-59
2023/09/28 09:38:28;;;;;;;7.82;3.20;;;20.70;99.90;;;;;;7296562;32;20198;-58
2023/09/28 09:42:31;;;;;;;12.15;3.53;;;20.80;99.90;;;;;;7296877;32;20169;-58
2023/09/28 09:46:33;;;;;;;7.00;2.85;;;21.00;99.90;;;;;;7301151;32;20187;-58
2023/09/28 09:50:36;;;;;;;9.70;2.58;;;21.00;99.90;;;;;;7301300;32;21032;-58
2023/09/28 09:54:38;;;;;;;8.65;2.72;;;20.70;99.90;;;;;;7303101;32;20151;-55
2023/09/28 09:58:48;;;;;;;10.25;3.15;;;20.70;99.90;;;;;;7306003;32;20100;-55
2023/09/28 10:02:53;;;;;;;9.10;3.22;;;20.70;99.90;;;;;;7304242;32;20278;-56
2023/09/28 10:06:58;;;;;;;9.50;3.30;;;20.60;99.90;;;;;;7306855;32;20131;-56
2023/09/28 10:11:01;;;;;;;7.65;2.65;;;20.90;99.90;;;;;;7305371;32;20498;-59
2023/09/28 10:15:04;;;;;;;6.90;2.80;;;21.40;99.90;;;;;;7303002;32;20132;-57
2023/09/28 10:19:09;;;;;;;8.88;3.20;;;21.40;99.90;;;;;;7299812;32;20249;-59
2023/09/28 10:23:13;;;;;;;11.45;3.35;;;21.20;99.90;;;;;;7302436;32;20099;-59
2023/09/28 10:27:15;;;;;;;9.18;3.22;;;21.10;99.90;;;;;;7301798;32;20345;-57
2023/09/28 10:31:18;;;;;;;6.75;2.95;;;21.10;99.90;;;;;;7307287;32;20525;-58
2023/09/28 10:35:19;;;;;;;9.48;2.72;;;21.20;99.90;;;;;;7305623;32;20215;-58
2023/09/28 10:39:22;;;;;;;8.63;3.17;;;21.30;99.90;;;;;;7294554;32;20235;-57
2023/09/28 10:43:32;;;;;;;8.20;2.83;;;21.40;99.90;;;;;;7299467;32;20190;-55
2023/09/28 10:47:36;;;;;;;9.13;3.40;;;21.40;99.90;;;;;;7298880;32;20116;-57
2023/09/28 10:51:37;;;;;;;8.10;3.00;;;21.30;99.90;;;;;;7298984;32;20124;-58
2023/09/28 10:55:41;;;;;;;7.43;3.03;;;21.30;99.90;;;;;;7297636;32;20115;-56
2023/09/28 10:59:42;;;;;;;9.93;2.72;;;21.20;99.90;;;;;;7297144;32;20158;-56
2023/09/28 11:03:46;;;;;;;6.68;2.75;;;21.00;99.90;;;;;;7298721;32;20244;-56
2023/09/28 11:07:48;;;;;;;10.85;2.90;;;21.00;99.90;;;;;;7294622;32;20112;-56
2023/09/28 11:11:50;;;;;;;10.85;3.35;;;20.80;99.90;;;;;;7303556;32;20226;-57
2023/09/28 11:15:53;;;;;;;9.30;2.90;;;20.80;99.90;;;;;;7297374;32;20108;-58
2023/09/28 11:19:56;;;;;;;10.38;2.67;;;20.80;99.90;;;;;;7291012;32;20116;-57
2023/09/28 11:23:59;;;;;;;5.90;2.65;;;20.80;99.90;;;;;;7303930;32;20338;-57
2023/09/28 11:28:01;;;;;;;8.70;3.92;;;20.90;99.90;;;;;;7302633;32;20225;-57
2023/09/28 11:32:03;;;;;;;8.93;3.03;;;20.90;99.90;;;;;;7300065;32;20115;-57
2023/09/28 11:36:06;;;;;;;10.48;3.60;;;21.00;99.90;;;;;;7295146;32;20116;-57
2023/09/28 11:40:10;;;;;;;7.12;3.10;;;21.00;99.90;;;;;;7304556;32;20147;-57
2023/09/28 11:44:19;;;;;;;9.35;3.12;;;20.90;99.90;;;;;;7297398;32;20116;-59
2023/09/28 11:48:22;;;;;;;9.27;3.15;;;21.00;99.90;;;;;;7298076;32;20135;-57
2023/09/28 11:52:24;;;;;;;11.40;2.85;;;21.10;99.90;;;;;;7300616;32;20210;-56
2023/09/28 11:56:27;;;;;;;6.97;2.33;;;21.20;99.90;;;;;;7297882;32;20108;-57
2023/09/28 12:00:30;;;;;;;11.35;3.03;;;21.20;99.90;;;;;;7299622;32;20204;-57
2023/09/28 12:04:32;;;;;;;9.43;2.40;;;21.10;99.90;;;;;;7294049;32;20209;-57
2023/09/28 12:08:36;;;;;;;10.88;3.30;;;21.10;99.90;;;;;;7299561;32;20686;-56
2023/09/28 12:12:39;;;;;;;7.68;2.33;;;21.20;99.90;;;;;;7298182;32;20252;-55
2023/09/28 12:16:42;;;;;;;9.23;3.10;;;21.20;99.90;;;;;;7298411;32;20176;-55
2023/09/28 12:20:48;;;;;;;;;;;21.30;99.90;;;;;;7295770;32;20316;-56
2023/09/28 12:24:49;;;;;;;10.38;2.95;;;21.40;99.90;;;;;;7299770;32;19995;-55
2023/09/28 12:28:52;;;;;;;6.47;2.60;;;21.40;99.90;;;;;;7291995;32;20241;-55
2023/09/28 12:32:54;;;;;;;6.95;2.60;;;21.40;99.90;;;;;;7292640;32;20244;-56
2023/09/28 12:36:57;;;;;;;10.45;2.65;;;21.60;99.90;;;;;;7299524;32;20222;-56
2023/09/28 12:40:59;;;;;;;9.27;2.65;;;21.50;99.90;;;;;;7297056;32;20260;-56
2023/09/28 12:45:01;;;;;;;10.23;3.15;;;21.50;99.90;;;;;;7298502;32;20543;-56
2023/09/28 12:49:03;;;;;;;11.82;2.80;;;21.30;99.90;;;;;;7293377;32;20112;-56
2023/09/28 12:53:04;;;;;;;7.65;2.60;;;21.40;99.90;;;;;;7295198;32;20269;-55
2023/09/28 12:57:07;;;;;;;19.45;3.33;;;21.50;99.90;;;;;;7295928;32;20896;-56
2023/09/28 13:01:10;;;;;;;9.18;2.47;;;21.60;99.90;;;;;;7289936;32;20100;-56
2023/09/28 13:05:14;;;;;;;10.18;2.47;;;21.60;99.90;;;;;;7298661;32;20261;-57
2023/09/28 13:09:16;;;;;;;8.48;2.83;;;21.60;99.90;;;;;;7297574;32;20187;-57
2023/09/28 13:13:18;;;;;;;8.65;2.42;;;21.50;99.90;;;;;;7297922;32;20505;-56
2023/09/28 13:17:20;;;;;;;10.95;2.78;;;21.60;99.90;;;;;;7297229;32;20112;-57
2023/09/28 13:21:23;;;;;;;7.18;2.67;;;21.40;99.90;;;;;;7295499;32;20698;-58
2023/09/28 13:25:25;;;;;;;7.47;2.70;;;21.30;99.90;;;;;;7295277;32;20206;-58
2023/09/28 13:29:27;;;;;;;7.68;2.22;;;21.20;99.90;;;;;;7297738;32;20533;-59
2023/09/28 13:33:29;;;;;;;6.12;2.47;;;21.20;99.90;;;;;;7297580;32;20227;-57
2023/09/28 13:37:32;;;;;;;7.62;2.62;;;21.10;99.90;;;;;;7291809;32;20131;-58
2023/09/28 13:41:36;;;;;;;7.32;2.47;;;21.10;99.90;;;;;;7289078;32;20108;-58
2023/09/28 13:45:39;;;;;;;6.12;2.55;;;20.90;99.90;;;;;;7293697;32;20179;-60
2023/09/28 13:49:41;;;;;;;6.32;2.50;;;20.90;99.90;;;;;;7294511;32;20107;-59
2023/09/28 13:53:43;;;;;;;5.30;2.20;;;21.00;99.90;;;;;;7291334;32;20274;-60
2023/09/28 13:57:47;;;;;;;7.70;2.70;;;21.10;99.90;;;;;;7292989;32;20191;-59
2023/09/28 14:01:48;;;;;;;7.47;3.10;;;21.10;99.90;;;;;;7292270;32;20881;-58
2023/09/28 14:05:51;;;;;;;12.10;2.92;;;21.20;99.90;;;;;;7294516;32;20487;-60
2023/09/28 14:09:53;;;;;;;5.75;2.53;;;21.30;99.90;;;;;;7295011;32;20200;-59
2023/09/28 14:13:57;;;;;;;7.53;2.78;;;21.30;99.90;;;;;;7292928;32;20300;-60
2023/09/28 14:17:58;;;;;;;5.53;2.08;;;21.40;99.90;;;;;;7296117;32;20911;-61
2023/09/28 14:22:01;;;;;;;30.85;20.67;;;21.40;99.90;;;;;;7291869;32;20124;-59
2023/09/28 14:26:03;;;;;;;9.38;2.97;;;21.40;99.90;;;;;;7291749;32;20234;-57
2023/09/28 14:30:06;;;;;;;6.47;2.60;;;21.50;99.90;;;;;;7293783;32;20206;-57
2023/09/28 14:34:08;;;;;;;7.95;2.45;;;21.40;99.90;;;;;;7300569;32;20131;-56
2023/09/28 14:38:10;;;;;;;8.48;2.55;;;21.40;99.90;;;;;;7300555;32;20697;-57
2023/09/28 14:42:12;;;;;;;6.18;2.30;;;21.20;99.90;;;;;;7293717;32;20153;-56
2023/09/28 14:46:15;;;;;;;8.77;2.72;;;21.10;99.90;;;;;;7300647;32;20105;-56
2023/09/28 14:50:17;;;;;;;8.48;2.03;;;21.20;99.90;;;;;;7298726;32;20570;-58
2023/09/28 14:54:19;;;;;;;6.60;2.30;;;21.20;99.90;;;;;;7298831;32;20108;-57
2023/09/28 14:58:20;;;;;;;10.18;2.50;;;21.30;99.90;;;;;;7297609;32;20173;-56
2023/09/28 15:02:24;;;;;;;8.57;2.85;;;21.30;99.90;;;;;;7301365;32;20131;-58
2023/09/28 15:06:26;;;;;;;5.95;2.40;;;21.20;99.90;;;;;;7295425;32;22640;-57
2023/09/28 15:10:28;;;;;;;9.88;2.78;;;21.10;99.90;;;;;;7297368;32;20232;-57
2023/09/28 15:14:31;;;;;;;6.55;2.53;;;21.20;99.90;;;;;;7297022;32;20107;-56
2023/09/28 15:18:33;;;;;;;5.62;2.30;;;21.20;99.90;;;;;;7296287;32;20104;-57
2023/09/28 15:22:34;;;;;;;7.68;2.33;;;21.10;99.90;;;;;;7296294;32;20202;-56
2023/09/28 15:26:36;;;;;;;7.05;2.70;;;21.00;99.90;;;;;;7303966;32;20464;-58
2023/09/28 15:30:42;;;;;;;5.07;2.55;;;20.80;99.90;;;;;;7305641;32;20104;-57
2023/09/28 15:34:45;;;;;;;7.18;2.45;;;20.80;99.90;;;;;;7303288;32;20540;-57
2023/09/28 15:38:47;;;;;;;11.50;2.33;;;20.80;99.90;;;;;;7299808;32;20115;-57
2023/09/28 15:42:49;;;;;;;6.80;2.22;;;20.60;99.90;;;;;;7304618;32;20119;-58
2023/09/28 15:46:50;;;;;;;8.18;2.47;;;20.50;99.90;;;;;;7298942;32;20161;-58
2023/09/28 15:50:53;;;;;;;9.23;2.72;;;20.60;99.90;;;;;;7298777;32;20130;-58
2023/09/28 15:54:54;;;;;;;9.98;2.35;;;20.30;99.90;;;;;;7301027;32;20111;-57
2023/09/28 15:58:56;;;;;;;10.80;2.80;;;20.20;99.90;;;;;;7303975;32;20112;-57
2023/09/28 16:02:59;;;;;;;5.50;2.30;;;20.10;99.90;;;;;;7301931;32;20127;-57
2023/09/28 16:07:01;;;;;;;8.65;2.80;;;20.10;99.90;;;;;;7305806;32;20150;-58
2023/09/28 16:11:03;;;;;;;5.65;2.40;;;20.00;99.90;;;;;;7298494;32;20116;-57
2023/09/28 16:15:05;;;;;;;7.82;2.85;;;19.90;99.90;;;;;;7300783;32;20489;-57
2023/09/28 16:19:07;;;;;;;5.53;2.65;;;19.90;99.90;;;;;;7296033;32;20150;-57
2023/09/28 16:23:09;;;;;;;13.88;5.28;;;19.90;99.90;;;;;;7296026;32;20207;-57
2023/09/28 16:27:10;;;;;;;10.82;3.75;;;19.80;99.90;;;;;;7295726;32;20166;-57
2023/09/28 16:31:12;;;;;;;8.20;2.85;;;19.70;99.90;;;;;;7300955;32;20111;-58
2023/09/28 16:35:14;;;;;;;7.72;2.70;;;19.70;99.90;;;;;;7300342;32;20216;-59
2023/09/28 16:39:17;;;;;;;6.50;2.47;;;19.70;99.90;;;;;;7293750;32;20190;-57
2023/09/28 16:43:18;;;;;;;6.57;3.00;;;19.70;99.90;;;;;;7296775;32;20135;-58
2023/09/28 16:47:20;;;;;;;8.52;2.42;;;19.60;99.90;;;;;;7293669;32;20179;-56
2023/09/28 16:51:22;;;;;;;7.80;2.78;;;19.50;99.90;;;;;;7293318;32;21095;-55
2023/09/28 16:55:25;;;;;;;7.12;2.65;;;19.50;99.90;;;;;;7290071;32;20140;-56
2023/09/28 16:59:27;;;;;;;7.03;3.08;;;19.20;99.90;;;;;;7293427;32;20127;-56
2023/09/28 17:03:30;;;;;;;7.10;2.58;;;19.10;99.90;;;;;;7292516;32;20160;-56
2023/09/28 17:07:35;;;;;;;8.60;2.35;;;18.90;99.90;;;;;;7291795;32;20128;-55
2023/09/28 17:11:37;;;;;;;9.85;5.65;;;18.80;99.90;;;;;;7289264;32;20975;-57
2023/09/28 17:15:43;;;;;;;11.07;5.55;;;18.80;99.90;;;;;;7294090;32;20242;-57
2023/09/28 17:19:45;;;;;;;7.43;3.15;;;18.70;99.90;;;;;;7303869;32;20466;-56
2023/09/28 17:23:46;;;;;;;6.18;3.25;;;18.50;99.90;;;;;;7291493;32;20175;-57
2023/09/28 17:27:48;;;;;;;7.25;3.03;;;18.50;99.90;;;;;;7295990;32;20127;-57
2023/09/28 17:31:50;;;;;;;6.18;2.80;;;18.40;99.90;;;;;;7300073;32;20279;-56
2023/09/28 17:35:52;;;;;;;7.37;2.97;;;18.40;99.90;;;;;;7293229;32;20514;-57
2023/09/28 17:39:54;;;;;;;8.98;2.97;;;18.40;99.90;;;;;;7301624;32;20291;-56
2023/09/28 17:43:55;;;;;;;8.48;3.10;;;18.30;99.90;;;;;;7290016;32;20209;-56
2023/09/28 17:47:57;;;;;;;8.95;2.83;;;18.20;99.90;;;;;;7294438;32;20184;-57
2023/09/28 17:51:59;;;;;;;5.87;2.80;;;18.10;99.90;;;;;;7295143;32;20127;-57
2023/09/28 17:56:02;;;;;;;9.48;3.85;;;18.00;99.90;;;;;;7289966;32;20203;-58
2023/09/28 18:00:05;;;;;;;6.32;3.25;;;17.80;99.90;;;;;;7293657;32;20780;-58
2023/09/28 18:04:09;;;;;;;7.95;3.28;;;17.80;99.90;;;;;;7297063;32;21408;-56
2023/09/28 18:08:11;;;;;;;7.57;3.03;;;17.70;99.90;;;;;;7298487;32;20112;-57
2023/09/28 18:12:13;;;;;;;7.35;3.12;;;17.70;99.90;;;;;;7296430;32;20138;-56
2023/09/28 18:16:14;;;;;;;9.57;3.20;;;17.50;99.90;;;;;;7296106;32;20124;-56
2023/09/28 18:20:17;;;;;;;6.00;3.20;;;17.40;99.90;;;;;;7298559;32;20226;-55
2023/09/28 18:24:19;;;;;;;8.07;3.20;;;17.30;99.90;;;;;;7301511;32;20191;-56
2023/09/28 18:28:21;;;;;;;9.02;3.60;;;17.20;99.90;;;;;;7298172;32;20213;-56
2023/09/28 18:32:22;;;;;;;7.55;3.55;;;17.20;99.90;;;;;;7293339;32;20821;-56
2023/09/28 18:36:25;;;;;;;8.00;4.10;;;17.10;99.90;;;;;;7286876;32;20574;-56
2023/09/28 18:40:27;;;;;;;6.80;3.80;;;17.00;99.90;;;;;;7286918;32;20195;-57
2023/09/28 18:44:29;;;;;;;6.45;3.15;;;17.00;99.90;;;;;;7298901;32;20234;-57
2023/09/28 18:48:30;;;;;;;8.52;3.50;;;16.90;99.90;;;;;;7301992;32;20295;-57
2023/09/28 18:52:33;;;;;;;7.40;2.95;;;16.80;99.90;;;;;;7297048;32;20289;-57
2023/09/28 18:56:35;;;;;;;9.80;3.70;;;16.70;99.90;;;;;;7296889;32;20824;-55
2023/09/28 19:00:37;;;;;;;8.07;3.28;;;16.70;99.90;;;;;;7300476;32;20210;-55
2023/09/28 19:04:39;;;;;;;5.45;3.28;;;16.60;99.90;;;;;;7304829;32;20409;-56
2023/09/28 19:08:40;;;;;;;12.13;4.60;;;16.50;99.90;;;;;;7303236;32;20138;-55
2023/09/28 19:12:43;;;;;;;6.57;3.45;;;16.50;99.90;;;;;;7297939;32;20137;-55
2023/09/28 19:16:45;;;;;;;7.55;4.00;;;16.40;99.90;;;;;;7297934;32;20112;-56
2023/09/28 19:20:50;;;;;;;9.88;3.85;;;16.40;99.90;;;;;;7298996;32;20219;-55
2023/09/28 19:24:52;;;;;;;7.32;3.90;;;16.30;99.90;;;;;;7301880;32;20107;-56
2023/09/28 19:28:53;;;;;;;6.37;3.55;;;16.30;99.90;;;;;;7300303;32;20117;-55
2023/09/28 19:32:56;;;;;;;7.93;4.15;;;16.20;99.90;;;;;;7302456;32;20104;-56
2023/09/28 19:36:58;;;;;;;8.20;4.07;;;16.10;99.90;;;;;;7296804;32;20218;-56
2023/09/28 19:41:00;;;;;;;7.55;3.95;;;16.10;99.90;;;;;;7301368;32;20157;-55
2023/09/28 19:45:02;;;;;;;6.60;3.80;;;16.00;99.90;;;;;;7295968;32;20539;-56
2023/09/28 19:49:05;;;;;;;7.35;3.47;;;15.90;99.90;;;;;;7291717;32;20170;-57
2023/09/28 19:53:08;;;;;;;14.57;4.10;;;15.80;99.90;;;;;;7301403;32;20648;-55
2023/09/28 19:57:10;;;;;;;8.88;3.42;;;15.80;99.90;;;;;;7295670;32;20100;-55
2023/09/28 20:01:12;;;;;;;8.30;3.90;;;15.70;99.90;;;;;;7297547;32;20243;-55
2023/09/28 20:05:15;;;;;;;9.48;3.97;;;15.60;99.90;;;;;;7301180;32;20108;-55
2023/09/28 20:09:17;;;;;;;7.15;4.00;;;15.60;99.90;;;;;;7299869;32;20302;-56
2023/09/28 20:13:19;;;;;;;9.23;4.00;;;15.50;99.90;;;;;;7295312;32;20135;-55
2023/09/28 20:17:20;;;;;;;6.90;3.53;;;15.50;99.90;;;;;;7298029;32;20112;-55
2023/09/28 20:21:22;;;;;;;7.20;3.95;;;15.40;99.90;;;;;;7295606;32;20109;-56
2023/09/28 20:25:24;;;;;;;10.73;4.25;;;15.40;99.90;;;;;;7302427;32;20133;-57
2023/09/28 20:29:27;;;;;;;8.80;3.92;;;15.40;99.90;;;;;;7301002;32;20293;-56
2023/09/28 20:33:29;;;;;;;11.70;4.10;;;15.30;99.90;;;;;;7301368;32;20112;-56
2023/09/28 20:37:30;;;;;;;9.50;4.15;;;15.30;99.90;;;;;;7293555;32;20112;-56
2023/09/28 20:41:32;;;;;;;10.45;4.45;;;15.30;99.90;;;;;;7294921;32;20136;-56
2023/09/28 20:45:38;;;;;;;10.80;4.40;;;15.30;99.90;;;;;;7294436;32;20563;-56
2023/09/28 20:49:40;;;;;;;9.07;5.05;;;15.20;99.90;;;;;;7294676;32;20175;-56
2023/09/28 20:53:42;;;;;;;12.88;5.35;;;15.20;99.90;;;;;;7303565;32;20534;-56
2023/09/28 20:57:43;;;;;;;8.00;4.80;;;15.20;99.90;;;;;;7300208;32;20119;-56
2023/09/28 21:01:49;;;;;;;8.65;5.35;;;15.20;99.90;;;;;;7298719;32;20103;-56
2023/09/28 21:05:50;;;;;;;7.68;4.68;;;15.20;99.90;;;;;;7294660;32;20096;-56